Hlavní strana
METAR-TAF:

METAR-TAF

Letiště :

Bentonville Municipal Airport/Louise M Thaden Field

Bentonville, Arkansas, Spojené státy americké

zeměpisná šířka: 36-21N, zeměpisná délka: 094-13W, výška: 395 m

Aktuální stav počasí

Zpráva byla vytvořena před 1 hodinou a 11 minutami, v 08:56 UTC
Jihovýchodní vítr 6 kt
Teplota 9°C
Vlhkost vzduchu 100%
Tlak 1005 hPa
Viditelnost: 16.1 km
Zataženo ve výšce 600 ft
slabý déšť

METAR: KVBT 240856Z AUTO 14006KT 10SM -RA OVC006 09/09 A2969 RMK AO2 SLP059 P0002 60006 T00890089 58024 TSNO

Čas: 04:07 (10:07 UTC)


TAF: chybějící

Stav a předpovědi počasí z více než 4 000 letišť (zprávy METAR a TAF).

Červené a žluté tečky na mapě představují dostupné meteorologické stanice.

Když kurzor umístíte na tečku, zobrazí se název stanice.

Pak kliknutím zobrazíte stav a předpověď počasí.

Chcete-li změnit mapu, kliknutím na zelené tlačítko se znaménkem +mapu přiblížíte, kliknutím na zelené tlačítko se znaménkem – mapu oddálíte a kliknutím na zelené šipky přejdete na sousední mapy.


METAR-TAF: